sensor_id;sensor_type;location;lat;lon;timestamp;temperature;humidity
47791;DHT22;33547;49.044;1.156;2022-07-10T00:00:09;23.20;50.00
47791;DHT22;33547;49.044;1.156;2022-07-10T00:02:40;23.10;50.00
47791;DHT22;33547;49.044;1.156;2022-07-10T00:05:07;23.10;50.00
47791;DHT22;33547;49.044;1.156;2022-07-10T00:07:34;23.10;50.00
47791;DHT22;33547;49.044;1.156;2022-07-10T00:10:00;23.00;50.10
47791;DHT22;33547;49.044;1.156;2022-07-10T00:12:27;23.00;50.10
47791;DHT22;33547;49.044;1.156;2022-07-10T00:14:53;23.00;50.10
47791;DHT22;33547;49.044;1.156;2022-07-10T00:17:19;22.90;50.10
47791;DHT22;33547;49.044;1.156;2022-07-10T00:19:44;22.90;50.10
47791;DHT22;33547;49.044;1.156;2022-07-10T00:22:11;22.90;50.20
47791;DHT22;33547;49.044;1.156;2022-07-10T00:24:37;22.80;50.20
47791;DHT22;33547;49.044;1.156;2022-07-10T00:27:03;22.80;50.20
47791;DHT22;33547;49.044;1.156;2022-07-10T00:29:29;22.80;50.30
47791;DHT22;33547;49.044;1.156;2022-07-10T00:31:55;22.70;50.30
47791;DHT22;33547;49.044;1.156;2022-07-10T00:34:20;22.70;50.40
47791;DHT22;33547;49.044;1.156;2022-07-10T00:36:46;22.70;50.40
47791;DHT22;33547;49.044;1.156;2022-07-10T00:39:12;22.60;50.40
47791;DHT22;33547;49.044;1.156;2022-07-10T00:41:38;22.60;50.50
47791;DHT22;33547;49.044;1.156;2022-07-10T00:44:04;22.60;50.50
47791;DHT22;33547;49.044;1.156;2022-07-10T00:46:31;22.50;50.50
47791;DHT22;33547;49.044;1.156;2022-07-10T00:48:57;22.50;50.60
47791;DHT22;33547;49.044;1.156;2022-07-10T00:51:29;22.50;50.50
47791;DHT22;33547;49.044;1.156;2022-07-10T00:53:56;22.50;50.70
47791;DHT22;33547;49.044;1.156;2022-07-10T00:56:24;22.40;50.60
47791;DHT22;33547;49.044;1.156;2022-07-10T00:58:51;22.40;50.70
47791;DHT22;33547;49.044;1.156;2022-07-10T01:01:17;22.30;50.70
47791;DHT22;33547;49.044;1.156;2022-07-10T01:03:44;22.30;50.80
47791;DHT22;33547;49.044;1.156;2022-07-10T01:06:12;22.30;50.80
47791;DHT22;33547;49.044;1.156;2022-07-10T01:08:38;22.30;50.80
47791;DHT22;33547;49.044;1.156;2022-07-10T01:11:05;22.30;50.80
47791;DHT22;33547;49.044;1.156;2022-07-10T01:13:30;22.20;50.80
47791;DHT22;33547;49.044;1.156;2022-07-10T01:15:57;22.10;50.90
47791;DHT22;33547;49.044;1.156;2022-07-10T01:18:24;22.20;51.00
47791;DHT22;33547;49.044;1.156;2022-07-10T01:20:56;22.10;51.00
47791;DHT22;33547;49.044;1.156;2022-07-10T01:23:23;22.10;51.00
47791;DHT22;33547;49.044;1.156;2022-07-10T01:25:49;22.00;51.00
47791;DHT22;33547;49.044;1.156;2022-07-10T01:28:20;22.00;51.00
47791;DHT22;33547;49.044;1.156;2022-07-10T01:30:47;22.00;51.10
47791;DHT22;33547;49.044;1.156;2022-07-10T01:33:14;21.90;51.00
47791;DHT22;33547;49.044;1.156;2022-07-10T01:35:39;21.90;51.10
47791;DHT22;33547;49.044;1.156;2022-07-10T01:38:06;21.90;51.20
47791;DHT22;33547;49.044;1.156;2022-07-10T01:40:32;21.90;51.20
47791;DHT22;33547;49.044;1.156;2022-07-10T01:42:58;21.80;51.10
47791;DHT22;33547;49.044;1.156;2022-07-10T01:45:24;21.80;51.20
47791;DHT22;33547;49.044;1.156;2022-07-10T01:47:50;21.70;51.30
47791;DHT22;33547;49.044;1.156;2022-07-10T01:50:16;21.70;51.30
47791;DHT22;33547;49.044;1.156;2022-07-10T01:52:42;21.70;51.30
47791;DHT22;33547;49.044;1.156;2022-07-10T01:55:08;21.70;51.30
47791;DHT22;33547;49.044;1.156;2022-07-10T01:57:34;21.70;51.40
47791;DHT22;33547;49.044;1.156;2022-07-10T02:00:00;21.70;51.50
47791;DHT22;33547;49.044;1.156;2022-07-10T02:02:26;21.60;51.40
47791;DHT22;33547;49.044;1.156;2022-07-10T02:04:52;21.60;51.60
47791;DHT22;33547;49.044;1.156;2022-07-10T02:07:19;21.60;51.50
47791;DHT22;33547;49.044;1.156;2022-07-10T02:09:47;21.50;51.50
47791;DHT22;33547;49.044;1.156;2022-07-10T02:12:14;21.50;51.60
47791;DHT22;33547;49.044;1.156;2022-07-10T02:14:41;21.50;51.60
47791;DHT22;33547;49.044;1.156;2022-07-10T02:17:08;21.40;51.50
47791;DHT22;33547;49.044;1.156;2022-07-10T02:19:34;21.40;51.60
47791;DHT22;33547;49.044;1.156;2022-07-10T02:22:01;21.40;51.60
47791;DHT22;33547;49.044;1.156;2022-07-10T02:24:27;21.40;51.80
47791;DHT22;33547;49.044;1.156;2022-07-10T02:26:53;21.30;51.70
47791;DHT22;33547;49.044;1.156;2022-07-10T02:29:20;21.30;51.70
47791;DHT22;33547;49.044;1.156;2022-07-10T02:31:48;21.30;51.80
47791;DHT22;33547;49.044;1.156;2022-07-10T02:34:14;21.30;51.80
47791;DHT22;33547;49.044;1.156;2022-07-10T02:36:41;21.20;51.80
47791;DHT22;33547;49.044;1.156;2022-07-10T02:39:07;21.20;51.80
47791;DHT22;33547;49.044;1.156;2022-07-10T02:41:34;21.20;51.80
47791;DHT22;33547;49.044;1.156;2022-07-10T02:44:02;21.20;51.90
47791;DHT22;33547;49.044;1.156;2022-07-10T02:46:28;21.10;51.90
47791;DHT22;33547;49.044;1.156;2022-07-10T02:48:54;21.10;51.90
47791;DHT22;33547;49.044;1.156;2022-07-10T02:51:19;21.10;52.00
47791;DHT22;33547;49.044;1.156;2022-07-10T02:53:45;21.10;52.00
47791;DHT22;33547;49.044;1.156;2022-07-10T02:56:11;21.00;51.90
47791;DHT22;33547;49.044;1.156;2022-07-10T02:58:38;21.00;52.10
47791;DHT22;33547;49.044;1.156;2022-07-10T03:01:05;21.00;52.10
47791;DHT22;33547;49.044;1.156;2022-07-10T03:03:31;21.00;52.10
47791;DHT22;33547;49.044;1.156;2022-07-10T03:05:58;20.90;52.10
47791;DHT22;33547;49.044;1.156;2022-07-10T03:08:24;20.90;52.10
47791;DHT22;33547;49.044;1.156;2022-07-10T03:10:50;20.90;52.10
47791;DHT22;33547;49.044;1.156;2022-07-10T03:13:16;20.90;52.20
47791;DHT22;33547;49.044;1.156;2022-07-10T03:15:41;20.80;52.20
47791;DHT22;33547;49.044;1.156;2022-07-10T03:18:07;20.80;52.10
47791;DHT22;33547;49.044;1.156;2022-07-10T03:20:33;20.80;52.30
47791;DHT22;33547;49.044;1.156;2022-07-10T03:22:59;20.80;52.30
47791;DHT22;33547;49.044;1.156;2022-07-10T03:25:25;20.80;52.20
47791;DHT22;33547;49.044;1.156;2022-07-10T03:27:51;20.70;52.30
47791;DHT22;33547;49.044;1.156;2022-07-10T03:30:16;20.70;52.20
47791;DHT22;33547;49.044;1.156;2022-07-10T03:32:42;20.70;52.30
47791;DHT22;33547;49.044;1.156;2022-07-10T03:35:08;20.70;52.30
47791;DHT22;33547;49.044;1.156;2022-07-10T03:37:34;20.60;52.30
47791;DHT22;33547;49.044;1.156;2022-07-10T03:40:00;20.60;52.40
47791;DHT22;33547;49.044;1.156;2022-07-10T03:42:25;20.60;52.50
47791;DHT22;33547;49.044;1.156;2022-07-10T03:44:51;20.60;52.40
47791;DHT22;33547;49.044;1.156;2022-07-10T03:47:17;20.60;52.50
47791;DHT22;33547;49.044;1.156;2022-07-10T03:49:43;20.50;52.40
47791;DHT22;33547;49.044;1.156;2022-07-10T03:52:08;20.50;52.40
47791;DHT22;33547;49.044;1.156;2022-07-10T03:54:34;20.50;52.50
47791;DHT22;33547;49.044;1.156;2022-07-10T03:57:00;20.50;52.50
47791;DHT22;33547;49.044;1.156;2022-07-10T03:59:44;20.50;52.50
47791;DHT22;33547;49.044;1.156;2022-07-10T04:02:10;20.40;52.40
47791;DHT22;33547;49.044;1.156;2022-07-10T04:04:37;20.40;52.50
47791;DHT22;33547;49.044;1.156;2022-07-10T04:07:03;20.40;52.50
47791;DHT22;33547;49.044;1.156;2022-07-10T04:09:32;20.40;52.60
47791;DHT22;33547;49.044;1.156;2022-07-10T04:12:01;20.40;52.60
47791;DHT22;33547;49.044;1.156;2022-07-10T04:14:27;20.30;52.60
47791;DHT22;33547;49.044;1.156;2022-07-10T04:16:53;20.30;52.60
47791;DHT22;33547;49.044;1.156;2022-07-10T04:19:19;20.30;52.60
47791;DHT22;33547;49.044;1.156;2022-07-10T04:21:47;20.30;52.70
47791;DHT22;33547;49.044;1.156;2022-07-10T04:24:13;20.20;52.60
47791;DHT22;33547;49.044;1.156;2022-07-10T04:26:39;20.20;52.60
47791;DHT22;33547;49.044;1.156;2022-07-10T04:29:04;20.20;52.70
47791;DHT22;33547;49.044;1.156;2022-07-10T04:31:30;20.20;52.70
47791;DHT22;33547;49.044;1.156;2022-07-10T04:33:56;20.20;52.70
47791;DHT22;33547;49.044;1.156;2022-07-10T04:36:24;20.20;52.60
47791;DHT22;33547;49.044;1.156;2022-07-10T04:38:50;20.20;52.60
47791;DHT22;33547;49.044;1.156;2022-07-10T04:41:16;20.20;52.60
47791;DHT22;33547;49.044;1.156;2022-07-10T04:43:42;20.20;52.70
47791;DHT22;33547;49.044;1.156;2022-07-10T04:46:08;20.20;52.70
47791;DHT22;33547;49.044;1.156;2022-07-10T04:48:34;20.20;52.70
47791;DHT22;33547;49.044;1.156;2022-07-10T04:50:59;20.20;52.70
47791;DHT22;33547;49.044;1.156;2022-07-10T04:53:25;20.20;52.70
47791;DHT22;33547;49.044;1.156;2022-07-10T04:55:51;20.20;52.70
47791;DHT22;33547;49.044;1.156;2022-07-10T04:58:17;20.20;52.70
47791;DHT22;33547;49.044;1.156;2022-07-10T05:00:43;20.20;52.60
47791;DHT22;33547;49.044;1.156;2022-07-10T05:03:09;20.20;52.70
47791;DHT22;33547;49.044;1.156;2022-07-10T05:05:34;20.20;52.50
47791;DHT22;33547;49.044;1.156;2022-07-10T05:08:00;20.20;52.60
47791;DHT22;33547;49.044;1.156;2022-07-10T05:10:26;20.20;52.50
47791;DHT22;33547;49.044;1.156;2022-07-10T05:12:52;20.20;52.40
47791;DHT22;33547;49.044;1.156;2022-07-10T05:15:18;20.20;52.40
47791;DHT22;33547;49.044;1.156;2022-07-10T05:17:44;20.30;52.40
47791;DHT22;33547;49.044;1.156;2022-07-10T05:20:10;20.30;52.30
47791;DHT22;33547;49.044;1.156;2022-07-10T05:22:36;20.30;52.30
47791;DHT22;33547;49.044;1.156;2022-07-10T05:25:02;20.40;52.30
47791;DHT22;33547;49.044;1.156;2022-07-10T05:27:28;20.40;52.20
47791;DHT22;33547;49.044;1.156;2022-07-10T05:29:54;20.40;52.20
47791;DHT22;33547;49.044;1.156;2022-07-10T05:32:20;20.40;52.10
47791;DHT22;33547;49.044;1.156;2022-07-10T05:34:47;20.50;52.10
47791;DHT22;33547;49.044;1.156;2022-07-10T05:37:13;20.50;52.00
47791;DHT22;33547;49.044;1.156;2022-07-10T05:39:39;20.60;52.00
47791;DHT22;33547;49.044;1.156;2022-07-10T05:42:05;20.60;52.00
47791;DHT22;33547;49.044;1.156;2022-07-10T05:44:30;20.60;51.90
47791;DHT22;33547;49.044;1.156;2022-07-10T05:46:56;20.70;51.80
47791;DHT22;33547;49.044;1.156;2022-07-10T05:49:22;20.70;51.70
47791;DHT22;33547;49.044;1.156;2022-07-10T05:51:48;20.80;51.70
47791;DHT22;33547;49.044;1.156;2022-07-10T05:54:14;20.90;51.50
47791;DHT22;33547;49.044;1.156;2022-07-10T05:56:40;20.90;51.40
47791;DHT22;33547;49.044;1.156;2022-07-10T05:59:06;21.00;51.30
47791;DHT22;33547;49.044;1.156;2022-07-10T06:01:32;21.10;51.20
47791;DHT22;33547;49.044;1.156;2022-07-10T06:03:57;21.20;51.10
47791;DHT22;33547;49.044;1.156;2022-07-10T06:06:23;21.20;50.90
47791;DHT22;33547;49.044;1.156;2022-07-10T06:08:49;21.30;50.70
47791;DHT22;33547;49.044;1.156;2022-07-10T06:11:15;21.40;50.50
47791;DHT22;33547;49.044;1.156;2022-07-10T06:13:41;21.50;50.40
47791;DHT22;33547;49.044;1.156;2022-07-10T06:16:07;21.60;50.20
47791;DHT22;33547;49.044;1.156;2022-07-10T06:18:33;21.80;50.00
47791;DHT22;33547;49.044;1.156;2022-07-10T06:20:59;21.90;49.80
47791;DHT22;33547;49.044;1.156;2022-07-10T06:23:25;22.30;51.70
47791;DHT22;33547;49.044;1.156;2022-07-10T06:25:51;22.90;51.20
47791;DHT22;33547;49.044;1.156;2022-07-10T06:28:17;23.50;50.60
47791;DHT22;33547;49.044;1.156;2022-07-10T06:30:44;24.10;50.20
47791;DHT22;33547;49.044;1.156;2022-07-10T06:33:11;24.60;47.90
47791;DHT22;33547;49.044;1.156;2022-07-10T06:35:37;24.90;47.00
47791;DHT22;33547;49.044;1.156;2022-07-10T06:38:03;25.30;47.40
47791;DHT22;33547;49.044;1.156;2022-07-10T06:40:29;25.70;46.30
47791;DHT22;33547;49.044;1.156;2022-07-10T06:42:55;26.10;45.70
47791;DHT22;33547;49.044;1.156;2022-07-10T06:45:21;26.50;44.60
47791;DHT22;33547;49.044;1.156;2022-07-10T06:47:47;26.90;43.50
47791;DHT22;33547;49.044;1.156;2022-07-10T06:50:25;27.20;42.50
47791;DHT22;33547;49.044;1.156;2022-07-10T06:52:52;27.60;41.60
47791;DHT22;33547;49.044;1.156;2022-07-10T06:55:18;28.00;40.80
47791;DHT22;33547;49.044;1.156;2022-07-10T06:57:45;28.20;39.70
47791;DHT22;33547;49.044;1.156;2022-07-10T07:00:11;28.70;39.60
47791;DHT22;33547;49.044;1.156;2022-07-10T07:02:37;28.60;38.90
47791;DHT22;33547;49.044;1.156;2022-07-10T07:05:04;28.30;38.10
47791;DHT22;33547;49.044;1.156;2022-07-10T07:07:31;28.10;38.60
47791;DHT22;33547;49.044;1.156;2022-07-10T07:09:57;27.80;38.70
47791;DHT22;33547;49.044;1.156;2022-07-10T07:12:23;27.60;38.80
47791;DHT22;33547;49.044;1.156;2022-07-10T07:14:48;27.40;39.10
47791;DHT22;33547;49.044;1.156;2022-07-10T07:17:15;27.40;39.00
47791;DHT22;33547;49.044;1.156;2022-07-10T07:19:51;27.30;38.80
47791;DHT22;33547;49.044;1.156;2022-07-10T07:22:36;27.20;39.10
47791;DHT22;33547;49.044;1.156;2022-07-10T07:25:22;27.20;39.10
47791;DHT22;33547;49.044;1.156;2022-07-10T07:27:48;27.30;39.10
47791;DHT22;33547;49.044;1.156;2022-07-10T07:30:15;27.20;38.40
47791;DHT22;33547;49.044;1.156;2022-07-10T07:32:41;27.20;38.10
47791;DHT22;33547;49.044;1.156;2022-07-10T07:35:09;27.30;38.40
47791;DHT22;33547;49.044;1.156;2022-07-10T07:37:39;27.30;38.10
47791;DHT22;33547;49.044;1.156;2022-07-10T07:40:07;27.40;38.10
47791;DHT22;33547;49.044;1.156;2022-07-10T07:42:35;27.40;38.00
47791;DHT22;33547;49.044;1.156;2022-07-10T07:45:01;27.50;38.10
47791;DHT22;33547;49.044;1.156;2022-07-10T07:47:29;27.50;37.70
47791;DHT22;33547;49.044;1.156;2022-07-10T07:49:56;27.60;38.00
47791;DHT22;33547;49.044;1.156;2022-07-10T07:52:21;27.70;37.80
47791;DHT22;33547;49.044;1.156;2022-07-10T07:54:48;27.70;37.70
47791;DHT22;33547;49.044;1.156;2022-07-10T07:57:16;27.80;37.60
47791;DHT22;33547;49.044;1.156;2022-07-10T07:59:42;27.90;37.60
47791;DHT22;33547;49.044;1.156;2022-07-10T08:02:08;27.90;37.20
47791;DHT22;33547;49.044;1.156;2022-07-10T08:04:33;28.00;37.00
47791;DHT22;33547;49.044;1.156;2022-07-10T08:06:59;28.10;37.00
47791;DHT22;33547;49.044;1.156;2022-07-10T08:09:26;28.20;37.10
47791;DHT22;33547;49.044;1.156;2022-07-10T08:11:52;28.20;37.40
47791;DHT22;33547;49.044;1.156;2022-07-10T08:14:18;28.30;37.00
47791;DHT22;33547;49.044;1.156;2022-07-10T08:16:44;28.40;36.60
47791;DHT22;33547;49.044;1.156;2022-07-10T08:19:09;28.50;36.50
47791;DHT22;33547;49.044;1.156;2022-07-10T08:21:35;28.50;36.30
47791;DHT22;33547;49.044;1.156;2022-07-10T08:24:01;28.60;36.10
47791;DHT22;33547;49.044;1.156;2022-07-10T08:26:27;28.70;36.10
47791;DHT22;33547;49.044;1.156;2022-07-10T08:28:53;28.80;36.00
47791;DHT22;33547;49.044;1.156;2022-07-10T08:31:19;28.90;36.20
47791;DHT22;33547;49.044;1.156;2022-07-10T08:33:44;29.00;36.00
47791;DHT22;33547;49.044;1.156;2022-07-10T08:36:11;29.00;36.30
47791;DHT22;33547;49.044;1.156;2022-07-10T08:38:36;29.20;36.60
47791;DHT22;33547;49.044;1.156;2022-07-10T08:41:05;29.20;35.90
47791;DHT22;33547;49.044;1.156;2022-07-10T08:43:31;29.40;35.60
47791;DHT22;33547;49.044;1.156;2022-07-10T08:45:58;29.50;35.10
47791;DHT22;33547;49.044;1.156;2022-07-10T08:48:25;29.70;34.80
47791;DHT22;33547;49.044;1.156;2022-07-10T08:50:54;29.70;34.90
47791;DHT22;33547;49.044;1.156;2022-07-10T08:53:32;29.80;34.50
47791;DHT22;33547;49.044;1.156;2022-07-10T08:55:58;29.90;34.40
47791;DHT22;33547;49.044;1.156;2022-07-10T08:58:26;30.00;35.10
47791;DHT22;33547;49.044;1.156;2022-07-10T09:00:53;30.00;34.70
47791;DHT22;33547;49.044;1.156;2022-07-10T09:03:19;30.20;34.50
47791;DHT22;33547;49.044;1.156;2022-07-10T09:05:45;30.20;35.70
47791;DHT22;33547;49.044;1.156;2022-07-10T09:08:25;30.30;34.90
47791;DHT22;33547;49.044;1.156;2022-07-10T09:11:16;30.40;34.50
47791;DHT22;33547;49.044;1.156;2022-07-10T09:13:52;30.60;33.80
47791;DHT22;33547;49.044;1.156;2022-07-10T09:16:23;30.70;34.20
47791;DHT22;33547;49.044;1.156;2022-07-10T09:18:53;30.80;33.40
47791;DHT22;33547;49.044;1.156;2022-07-10T09:21:20;30.90;33.60
47791;DHT22;33547;49.044;1.156;2022-07-10T09:23:47;30.90;34.10
47791;DHT22;33547;49.044;1.156;2022-07-10T09:26:13;31.00;34.40
47791;DHT22;33547;49.044;1.156;2022-07-10T09:28:39;31.10;33.10
47791;DHT22;33547;49.044;1.156;2022-07-10T09:31:05;31.20;33.10
47791;DHT22;33547;49.044;1.156;2022-07-10T09:33:32;31.20;32.60
47791;DHT22;33547;49.044;1.156;2022-07-10T09:36:10;31.30;33.30
47791;DHT22;33547;49.044;1.156;2022-07-10T09:43:52;31.60;32.40
47791;DHT22;33547;49.044;1.156;2022-07-10T09:46:22;31.60;32.50
47791;DHT22;33547;49.044;1.156;2022-07-10T09:49:13;31.70;31.80
47791;DHT22;33547;49.044;1.156;2022-07-10T09:51:45;31.90;31.70
47791;DHT22;33547;49.044;1.156;2022-07-10T09:54:12;31.90;31.70
47791;DHT22;33547;49.044;1.156;2022-07-10T09:56:46;32.00;31.90
47791;DHT22;33547;49.044;1.156;2022-07-10T09:59:20;31.90;32.10
47791;DHT22;33547;49.044;1.156;2022-07-10T10:01:47;32.10;32.10
47791;DHT22;33547;49.044;1.156;2022-07-10T10:04:18;32.00;31.90
47791;DHT22;33547;49.044;1.156;2022-07-10T10:06:59;32.10;31.90
47791;DHT22;33547;49.044;1.156;2022-07-10T10:09:40;32.30;31.50
47791;DHT22;33547;49.044;1.156;2022-07-10T10:12:19;32.30;31.90
47791;DHT22;33547;49.044;1.156;2022-07-10T10:14:49;32.30;32.60
47791;DHT22;33547;49.044;1.156;2022-07-10T10:17:17;32.50;31.20
47791;DHT22;33547;49.044;1.156;2022-07-10T10:19:45;32.70;30.90
47791;DHT22;33547;49.044;1.156;2022-07-10T10:22:30;32.70;30.80
47791;DHT22;33547;49.044;1.156;2022-07-10T10:24:59;32.80;31.20
47791;DHT22;33547;49.044;1.156;2022-07-10T10:27:27;32.80;30.60
47791;DHT22;33547;49.044;1.156;2022-07-10T10:29:53;32.90;32.20
47791;DHT22;33547;49.044;1.156;2022-07-10T10:32:19;32.90;30.50
47791;DHT22;33547;49.044;1.156;2022-07-10T10:34:47;33.00;31.70
47791;DHT22;33547;49.044;1.156;2022-07-10T10:39:56;33.00;31.70
47791;DHT22;33547;49.044;1.156;2022-07-10T10:42:42;33.20;30.80
47791;DHT22;33547;49.044;1.156;2022-07-10T10:48:12;33.40;30.20
47791;DHT22;33547;49.044;1.156;2022-07-10T10:50:49;33.40;30.80
47791;DHT22;33547;49.044;1.156;2022-07-10T10:53:27;33.50;31.00
47791;DHT22;33547;49.044;1.156;2022-07-10T10:58:40;33.50;31.10
47791;DHT22;33547;49.044;1.156;2022-07-10T11:06:52;33.80;31.10
47791;DHT22;33547;49.044;1.156;2022-07-10T11:09:32;33.70;30.10
47791;DHT22;33547;49.044;1.156;2022-07-10T11:11:59;33.80;31.00
47791;DHT22;33547;49.044;1.156;2022-07-10T11:14:30;33.90;30.90
47791;DHT22;33547;49.044;1.156;2022-07-10T11:16:57;34.00;30.00
47791;DHT22;33547;49.044;1.156;2022-07-10T11:19:25;34.00;30.00
47791;DHT22;33547;49.044;1.156;2022-07-10T11:22:11;34.00;30.30
47791;DHT22;33547;49.044;1.156;2022-07-10T11:28:12;34.10;29.90
47791;DHT22;33547;49.044;1.156;2022-07-10T11:30:47;34.00;31.20
47791;DHT22;33547;49.044;1.156;2022-07-10T11:33:16;34.10;29.80
47791;DHT22;33547;49.044;1.156;2022-07-10T11:35:47;34.30;29.90
47791;DHT22;33547;49.044;1.156;2022-07-10T11:38:24;34.30;30.30
47791;DHT22;33547;49.044;1.156;2022-07-10T11:40:50;34.30;29.70
47791;DHT22;33547;49.044;1.156;2022-07-10T11:43:19;34.30;29.80
47791;DHT22;33547;49.044;1.156;2022-07-10T11:45:49;34.30;31.00
47791;DHT22;33547;49.044;1.156;2022-07-10T11:48:19;34.20;31.20
47791;DHT22;33547;49.044;1.156;2022-07-10T11:50:46;34.30;30.70
47791;DHT22;33547;49.044;1.156;2022-07-10T11:53:13;34.40;30.50
47791;DHT22;33547;49.044;1.156;2022-07-10T11:55:39;34.50;30.00
47791;DHT22;33547;49.044;1.156;2022-07-10T11:58:19;34.60;30.20
47791;DHT22;33547;49.044;1.156;2022-07-10T12:01:03;34.50;29.90
47791;DHT22;33547;49.044;1.156;2022-07-10T12:03:34;34.60;29.60
47791;DHT22;33547;49.044;1.156;2022-07-10T12:06:05;34.70;29.70
47791;DHT22;33547;49.044;1.156;2022-07-10T12:08:45;34.70;30.70
47791;DHT22;33547;49.044;1.156;2022-07-10T12:11:13;34.60;30.00
47791;DHT22;33547;49.044;1.156;2022-07-10T12:13:40;34.70;30.50
47791;DHT22;33547;49.044;1.156;2022-07-10T12:16:06;34.60;30.40
47791;DHT22;33547;49.044;1.156;2022-07-10T12:18:32;34.60;29.90
47791;DHT22;33547;49.044;1.156;2022-07-10T12:20:59;34.70;30.50
47791;DHT22;33547;49.044;1.156;2022-07-10T12:23:26;34.70;30.50
47791;DHT22;33547;49.044;1.156;2022-07-10T12:25:53;34.70;30.20
47791;DHT22;33547;49.044;1.156;2022-07-10T12:28:21;34.80;30.90
47791;DHT22;33547;49.044;1.156;2022-07-10T12:30:49;34.90;30.00
47791;DHT22;33547;49.044;1.156;2022-07-10T12:33:18;34.90;29.90
47791;DHT22;33547;49.044;1.156;2022-07-10T12:35:49;34.90;30.00
47791;DHT22;33547;49.044;1.156;2022-07-10T12:38:21;34.80;30.80
47791;DHT22;33547;49.044;1.156;2022-07-10T12:40:49;34.90;30.90
47791;DHT22;33547;49.044;1.156;2022-07-10T12:43:25;34.90;30.40
47791;DHT22;33547;49.044;1.156;2022-07-10T12:46:15;34.80;30.00
47791;DHT22;33547;49.044;1.156;2022-07-10T12:49:05;34.80;31.10
47791;DHT22;33547;49.044;1.156;2022-07-10T12:54:35;34.80;30.40
47791;DHT22;33547;49.044;1.156;2022-07-10T12:57:05;35.00;29.70
47791;DHT22;33547;49.044;1.156;2022-07-10T12:59:36;35.10;29.60
47791;DHT22;33547;49.044;1.156;2022-07-10T13:02:19;35.20;29.80
47791;DHT22;33547;49.044;1.156;2022-07-10T13:04:56;35.00;29.90
47791;DHT22;33547;49.044;1.156;2022-07-10T13:07:33;35.20;29.80
47791;DHT22;33547;49.044;1.156;2022-07-10T13:10:04;35.20;29.60
47791;DHT22;33547;49.044;1.156;2022-07-10T13:12:33;35.20;29.60
47791;DHT22;33547;49.044;1.156;2022-07-10T13:15:02;35.10;30.70
47791;DHT22;33547;49.044;1.156;2022-07-10T13:17:28;35.00;31.10
47791;DHT22;33547;49.044;1.156;2022-07-10T13:19:54;35.10;30.50
47791;DHT22;33547;49.044;1.156;2022-07-10T13:22:20;35.00;30.90
47791;DHT22;33547;49.044;1.156;2022-07-10T13:24:46;35.00;30.10
47791;DHT22;33547;49.044;1.156;2022-07-10T13:27:12;35.10;29.80
47791;DHT22;33547;49.044;1.156;2022-07-10T13:29:38;35.10;29.60
47791;DHT22;33547;49.044;1.156;2022-07-10T13:32:04;35.10;30.00
47791;DHT22;33547;49.044;1.156;2022-07-10T13:34:30;35.00;30.60
47791;DHT22;33547;49.044;1.156;2022-07-10T13:36:56;35.00;29.80
47791;DHT22;33547;49.044;1.156;2022-07-10T13:39:22;35.00;30.60
47791;DHT22;33547;49.044;1.156;2022-07-10T13:41:48;35.00;30.00
47791;DHT22;33547;49.044;1.156;2022-07-10T13:44:13;35.00;30.70
47791;DHT22;33547;49.044;1.156;2022-07-10T13:46:39;35.10;30.10
47791;DHT22;33547;49.044;1.156;2022-07-10T13:49:06;35.00;29.90
47791;DHT22;33547;49.044;1.156;2022-07-10T13:51:32;35.00;29.80
47791;DHT22;33547;49.044;1.156;2022-07-10T13:53:58;35.00;29.50
47791;DHT22;33547;49.044;1.156;2022-07-10T13:56:24;34.90;31.00
47791;DHT22;33547;49.044;1.156;2022-07-10T13:58:51;35.00;29.70
47791;DHT22;33547;49.044;1.156;2022-07-10T14:01:18;34.90;29.90
47791;DHT22;33547;49.044;1.156;2022-07-10T14:03:44;34.70;31.00
47791;DHT22;33547;49.044;1.156;2022-07-10T14:06:09;34.80;30.10
47791;DHT22;33547;49.044;1.156;2022-07-10T14:08:35;34.80;30.00
47791;DHT22;33547;49.044;1.156;2022-07-10T14:11:01;34.80;29.90
47791;DHT22;33547;49.044;1.156;2022-07-10T14:13:27;34.80;30.80
47791;DHT22;33547;49.044;1.156;2022-07-10T14:15:53;34.70;30.40
47791;DHT22;33547;49.044;1.156;2022-07-10T14:18:19;34.70;30.20
47791;DHT22;33547;49.044;1.156;2022-07-10T14:21:03;34.70;31.10
47791;DHT22;33547;49.044;1.156;2022-07-10T14:23:31;34.60;31.10
47791;DHT22;33547;49.044;1.156;2022-07-10T14:25:59;34.70;30.60
47791;DHT22;33547;49.044;1.156;2022-07-10T14:28:25;34.70;31.20
47791;DHT22;33547;49.044;1.156;2022-07-10T14:30:51;34.70;30.20
47791;DHT22;33547;49.044;1.156;2022-07-10T14:33:17;34.70;30.40
47791;DHT22;33547;49.044;1.156;2022-07-10T14:35:43;34.50;30.60
47791;DHT22;33547;49.044;1.156;2022-07-10T14:38:09;34.50;31.30
47791;DHT22;33547;49.044;1.156;2022-07-10T14:40:35;34.40;30.80
47791;DHT22;33547;49.044;1.156;2022-07-10T14:43:00;34.30;30.60
47791;DHT22;33547;49.044;1.156;2022-07-10T14:45:26;34.30;31.00
47791;DHT22;33547;49.044;1.156;2022-07-10T14:47:52;34.30;30.50
47791;DHT22;33547;49.044;1.156;2022-07-10T14:50:20;34.30;30.40
47791;DHT22;33547;49.044;1.156;2022-07-10T14:52:45;34.30;30.70
47791;DHT22;33547;49.044;1.156;2022-07-10T14:55:11;34.20;31.60
47791;DHT22;33547;49.044;1.156;2022-07-10T14:57:37;34.10;31.00
47791;DHT22;33547;49.044;1.156;2022-07-10T15:00:04;34.10;30.80
47791;DHT22;33547;49.044;1.156;2022-07-10T15:02:30;34.10;30.80
47791;DHT22;33547;49.044;1.156;2022-07-10T15:04:56;34.10;30.70
47791;DHT22;33547;49.044;1.156;2022-07-10T15:07:22;34.00;31.60
47791;DHT22;33547;49.044;1.156;2022-07-10T15:09:47;33.90;31.60
47791;DHT22;33547;49.044;1.156;2022-07-10T15:12:13;33.70;32.00
47791;DHT22;33547;49.044;1.156;2022-07-10T15:14:39;33.80;32.10
47791;DHT22;33547;49.044;1.156;2022-07-10T15:17:05;33.80;32.40
47791;DHT22;33547;49.044;1.156;2022-07-10T15:19:31;33.70;32.60
47791;DHT22;33547;49.044;1.156;2022-07-10T15:21:57;33.70;31.60
47791;DHT22;33547;49.044;1.156;2022-07-10T15:24:22;33.70;31.40
47791;DHT22;33547;49.044;1.156;2022-07-10T15:26:48;33.60;31.40
47791;DHT22;33547;49.044;1.156;2022-07-10T15:29:14;33.50;32.40
47791;DHT22;33547;49.044;1.156;2022-07-10T15:31:40;33.40;31.40
47791;DHT22;33547;49.044;1.156;2022-07-10T15:34:08;33.40;31.50
47791;DHT22;33547;49.044;1.156;2022-07-10T15:36:37;33.30;31.50
47791;DHT22;33547;49.044;1.156;2022-07-10T15:39:03;33.10;31.50
47791;DHT22;33547;49.044;1.156;2022-07-10T15:41:29;33.20;31.80
47791;DHT22;33547;49.044;1.156;2022-07-10T15:43:56;33.00;31.70
47791;DHT22;33547;49.044;1.156;2022-07-10T15:46:21;32.90;31.90
47791;DHT22;33547;49.044;1.156;2022-07-10T15:48:47;32.90;32.10
47791;DHT22;33547;49.044;1.156;2022-07-10T15:51:13;32.90;32.30
47791;DHT22;33547;49.044;1.156;2022-07-10T15:53:40;32.70;33.10
47791;DHT22;33547;49.044;1.156;2022-07-10T15:56:06;32.60;32.30
47791;DHT22;33547;49.044;1.156;2022-07-10T15:58:32;32.50;32.90